createdAt,value
2018-11-20T00:00:40.726Z,49.60
2018-11-20T00:03:49.711Z,52.10
2018-11-20T00:06:58.918Z,55.23
2018-11-20T00:10:08.585Z,54.17
2018-11-20T00:13:17.324Z,53.97
2018-11-20T00:16:26.349Z,50.27
2018-11-20T00:19:26.730Z,49.93
2018-11-20T00:22:35.427Z,50.03
2018-11-20T00:25:44.410Z,49.63
2018-11-20T00:28:40.719Z,47.90
2018-11-20T00:31:49.449Z,49.90
2018-11-20T00:34:58.192Z,51.10
2018-11-20T00:38:06.929Z,51.30
2018-11-20T00:41:16.548Z,49.73
2018-11-20T00:44:18.696Z,48.20
2018-11-20T00:47:27.800Z,49.60
2018-11-20T00:50:36.518Z,47.87
2018-11-20T00:53:45.277Z,49.87
2018-11-20T00:56:44.735Z,46.30
2018-11-20T00:59:55.553Z,49.47
2018-11-20T01:03:04.317Z,49.07
2018-11-20T01:06:06.379Z,47.13
2018-11-20T01:09:15.440Z,50.93
2018-11-20T01:12:25.231Z,49.50
2018-11-20T01:15:35.194Z,48.20
2018-11-20T01:18:32.665Z,48.57
2018-11-20T01:21:37.621Z,48.00
2018-11-20T01:24:45.066Z,48.70
2018-11-20T01:27:54.828Z,51.13
2018-11-20T01:31:04.195Z,47.97
2018-11-20T01:34:13.366Z,49.90
2018-11-20T01:37:22.353Z,47.90
2018-11-20T01:40:29.675Z,46.10
2018-11-20T01:43:38.408Z,48.73
2018-11-20T01:46:38.315Z,46.57
2018-11-20T01:49:47.326Z,48.93
2018-11-20T01:52:56.307Z,52.23
2018-11-20T01:56:07.312Z,46.57
2018-11-20T01:59:15.225Z,48.10
2018-11-20T02:02:23.996Z,49.03
2018-11-20T02:05:32.716Z,50.47
2018-11-20T02:08:41.448Z,46.00
2018-11-20T02:11:50.192Z,47.73
2018-11-20T02:14:59.192Z,47.77
2018-11-20T02:18:12.933Z,51.00
2018-11-20T02:21:21.910Z,46.87
2018-11-20T02:24:31.029Z,50.93
2018-11-20T02:27:39.747Z,50.90
2018-11-20T02:30:49.172Z,48.23
2018-11-20T02:33:58.157Z,49.47
2018-11-20T02:37:07.697Z,49.17
2018-11-20T02:40:16.677Z,50.13
2018-11-20T02:43:13.159Z,51.43
2018-11-20T02:46:25.664Z,52.27
2018-11-20T02:49:34.843Z,50.47
2018-11-20T02:52:43.599Z,52.00
2018-11-20T02:55:52.827Z,48.10
2018-11-20T02:59:02.701Z,48.87
2018-11-20T03:02:11.842Z,49.23
2018-11-20T03:05:20.553Z,47.63
2018-11-20T03:08:27.952Z,50.53
2018-11-20T03:15:06.621Z,47.27
2018-11-20T03:18:17.537Z,50.47
2018-11-20T03:21:26.513Z,46.80
2018-11-20T03:24:35.480Z,45.90
2018-11-20T03:27:44.537Z,45.87
2018-11-20T03:31:13.115Z,45.77
2018-11-20T03:34:22.374Z,43.87
2018-11-20T03:37:31.582Z,45.63
2018-11-20T03:40:40.360Z,42.47
2018-11-20T03:43:49.331Z,43.57
2018-11-20T03:47:17.335Z,43.47
2018-11-20T03:50:26.560Z,45.80
2018-11-20T03:53:35.288Z,42.43
2018-11-20T03:56:44.858Z,43.90
2018-11-20T03:59:54.000Z,45.33
2018-11-20T04:03:02.708Z,42.20
2018-11-20T04:06:11.450Z,44.80
2018-11-20T04:09:20.652Z,43.43
2018-11-20T04:12:30.265Z,43.27
2018-11-20T04:15:39.950Z,45.50
2018-11-20T04:18:49.383Z,43.30
2018-11-20T04:22:17.642Z,40.33
2018-11-20T04:25:26.864Z,42.87
2018-11-20T04:28:25.518Z,39.23
2018-11-20T04:32:15.051Z,40.57
2018-11-20T04:35:25.843Z,42.63
2018-11-20T04:38:34.826Z,39.17
2018-11-20T04:41:44.321Z,38.10
2018-11-20T04:44:53.297Z,42.20
2018-11-20T04:48:02.332Z,39.87
2018-11-20T04:51:11.335Z,38.07
2018-11-20T04:54:20.056Z,39.93
2018-11-20T04:57:28.816Z,38.00
2018-11-20T05:00:37.471Z,39.97
2018-11-20T05:04:05.918Z,39.47
2018-11-20T05:07:14.662Z,42.07
2018-11-20T05:10:24.683Z,40.73
2018-11-20T05:13:27.715Z,38.57
2018-11-20T05:16:55.667Z,38.43
2018-11-20T05:20:04.417Z,34.70
2018-11-20T05:23:13.403Z,35.27
2018-11-20T05:26:23.023Z,35.33
2018-11-20T05:29:32.037Z,36.03
2018-11-20T05:33:00.065Z,34.90
2018-11-20T05:36:09.283Z,35.00
2018-11-20T05:39:19.917Z,33.17
2018-11-20T05:42:29.176Z,33.47
2018-11-20T05:45:38.470Z,36.23
2018-11-20T05:48:47.241Z,35.03
2018-11-20T05:51:56.024Z,34.20
2018-11-20T05:54:51.951Z,32.17
2018-11-20T05:58:00.675Z,32.53
2018-11-20T06:01:14.236Z,31.53
2018-11-20T06:04:20.963Z,32.33
2018-11-20T06:07:29.945Z,28.67
2018-11-20T06:10:39.044Z,28.67
2018-11-20T06:13:47.770Z,30.33
2018-11-20T06:16:56.772Z,29.27
2018-11-20T06:20:05.760Z,28.00
2018-11-20T06:23:15.018Z,27.83
2018-11-20T06:26:23.749Z,26.07
2018-11-20T06:29:32.743Z,29.90
2018-11-20T06:32:41.771Z,23.00
2018-11-20T06:35:51.848Z,22.77
2018-11-20T06:39:00.821Z,19.83
2018-11-20T06:42:10.064Z,19.13
2018-11-20T06:45:18.776Z,18.87
2018-11-20T06:48:28.473Z,18.23
2018-11-20T06:51:37.465Z,18.40
2018-11-20T06:54:46.398Z,16.37
2018-11-20T06:57:50.315Z,16.80
2018-11-20T07:00:59.480Z,17.53
2018-11-20T07:04:08.536Z,17.63
2018-11-20T07:07:18.375Z,17.37
2018-11-20T07:10:27.375Z,17.20
2018-11-20T07:13:35.864Z,17.40
2018-11-20T07:16:57.911Z,16.97
2018-11-20T07:20:10.669Z,18.37
2018-11-20T07:23:11.277Z,17.30
2018-11-20T07:26:20.030Z,17.27
2018-11-20T07:32:24.016Z,20.80
2018-11-20T07:35:38.245Z,18.20
2018-11-20T07:38:45.594Z,17.60
2018-11-20T07:41:58.248Z,17.67
2018-11-20T07:45:25.370Z,17.67
2018-11-20T07:48:34.824Z,17.77
2018-11-20T07:52:03.065Z,18.07
2018-11-20T07:55:12.345Z,19.53
2018-11-20T07:58:21.580Z,17.77
2018-11-20T08:01:37.284Z,17.80
2018-11-20T08:04:46.246Z,19.47
2018-11-20T08:07:54.971Z,18.63
2018-11-20T08:11:03.680Z,18.63
2018-11-20T08:14:03.099Z,18.13
2018-11-20T08:17:11.821Z,18.73
2018-11-20T08:20:20.803Z,17.97
2018-11-20T08:23:29.736Z,18.67
2018-11-20T08:26:39.309Z,18.90
2018-11-20T08:29:48.617Z,17.63
2018-11-20T08:32:57.697Z,17.30
2018-11-20T08:36:06.936Z,16.87
2018-11-20T08:39:15.645Z,17.63
2018-11-20T08:42:25.201Z,16.27
2018-11-20T08:45:35.041Z,16.80
2018-11-20T08:48:35.698Z,16.93
2018-11-20T08:54:41.948Z,17.40
2018-11-20T08:57:51.222Z,16.47
2018-11-20T09:03:29.644Z,16.63
2018-11-20T09:06:38.644Z,16.07
2018-11-20T09:09:47.670Z,16.23
2018-11-20T09:12:57.000Z,15.00
2018-11-20T09:15:58.626Z,15.17
2018-11-20T09:19:13.137Z,15.17
2018-11-20T09:22:25.616Z,15.77
2018-11-20T09:25:34.852Z,14.47
2018-11-20T09:28:43.466Z,14.27
2018-11-20T09:31:52.730Z,14.47
2018-11-20T09:35:02.877Z,14.17
2018-11-20T09:38:12.022Z,14.00
2018-11-20T09:41:21.003Z,14.37
2018-11-20T09:44:50.893Z,13.67
2018-11-20T09:48:00.651Z,13.73
2018-11-20T09:51:10.342Z,13.60
2018-11-20T09:54:19.919Z,13.70
2018-11-20T09:57:29.471Z,13.63
2018-11-20T10:00:38.782Z,13.90
2018-11-20T10:04:06.531Z,14.50
2018-11-20T10:07:15.946Z,13.40
2018-11-20T10:10:26.263Z,12.57
2018-11-20T10:13:35.340Z,12.67
2018-11-20T10:16:44.343Z,12.70
2018-11-20T10:19:53.325Z,12.30
2018-11-20T10:22:56.984Z,12.83
2018-11-20T10:26:06.076Z,12.87
2018-11-20T10:29:14.715Z,12.20
2018-11-20T10:32:23.752Z,12.73
2018-11-20T10:35:32.770Z,12.27
2018-11-20T10:38:42.211Z,12.13
2018-11-20T10:41:51.155Z,12.97
2018-11-20T10:44:59.870Z,12.93
2018-11-20T10:48:08.581Z,12.20
2018-11-20T10:51:18.473Z,11.77
2018-11-20T10:54:27.193Z,12.20
2018-11-20T10:57:31.876Z,11.93
2018-11-20T11:00:41.807Z,12.13
2018-11-20T11:03:50.924Z,11.87
2018-11-20T11:06:59.922Z,13.13
2018-11-20T11:10:09.627Z,12.53
2018-11-20T11:13:18.864Z,12.17
2018-11-20T11:16:28.140Z,12.13
2018-11-20T11:19:36.877Z,13.20
2018-11-20T11:22:45.583Z,11.63
2018-11-20T11:26:13.333Z,12.57
2018-11-20T11:29:22.060Z,12.17
2018-11-20T11:32:31.451Z,12.70
2018-11-20T11:35:40.414Z,13.03
2018-11-20T11:38:49.397Z,11.67
2018-11-20T11:41:49.050Z,12.50
2018-11-20T11:44:58.002Z,12.20
2018-11-20T11:48:06.726Z,12.13
2018-11-20T11:51:15.491Z,12.17
2018-11-20T11:59:35.492Z,11.47
2018-11-20T12:08:46.813Z,12.00
2018-11-20T12:11:56.190Z,11.50
2018-11-20T12:15:05.069Z,10.67
2018-11-20T12:18:13.831Z,11.03
2018-11-20T12:21:22.574Z,10.10
2018-11-20T12:27:02.655Z,11.27
2018-11-20T12:30:10.807Z,10.20
2018-11-20T12:41:04.192Z,9.70
2018-11-20T12:46:42.946Z,10.80
2018-11-20T12:50:10.823Z,10.10
2018-11-20T12:53:21.451Z,10.23
2018-11-20T12:56:28.946Z,10.03
2018-11-20T12:59:37.708Z,10.03
2018-11-20T13:02:46.488Z,10.30
2018-11-20T13:05:55.593Z,10.07
2018-11-20T13:09:05.026Z,9.60
2018-11-20T13:12:14.095Z,9.40
2018-11-20T13:15:11.805Z,9.80
2018-11-20T13:18:20.518Z,8.83
2018-11-20T13:21:29.733Z,8.80
2018-11-20T13:24:38.467Z,9.77
2018-11-20T13:30:20.628Z,9.53
2018-11-20T13:33:20.397Z,8.60
2018-11-20T13:36:47.707Z,10.30
2018-11-20T13:39:56.575Z,9.87
2018-11-20T13:43:06.200Z,10.70
2018-11-20T13:48:51.980Z,8.83
2018-11-20T13:54:39.645Z,9.27
2018-11-20T13:57:48.722Z,10.03
2018-11-20T14:00:57.641Z,10.20
2018-11-20T14:04:07.011Z,10.60
2018-11-20T14:07:15.957Z,10.50
2018-11-20T14:13:00.599Z,11.10
2018-11-20T14:16:10.203Z,10.00
2018-11-20T14:19:18.919Z,10.20
2018-11-20T14:22:27.676Z,10.30
2018-11-20T14:25:55.745Z,10.33
2018-11-20T14:28:54.150Z,10.27
2018-11-20T14:32:21.899Z,11.53
2018-11-20T14:38:01.030Z,10.47
2018-11-20T14:41:13.314Z,10.93
2018-11-20T14:44:14.352Z,11.00
2018-11-20T14:47:17.211Z,11.47
2018-11-20T14:50:26.836Z,10.57
2018-11-20T14:53:36.210Z,11.27
2018-11-20T14:56:45.711Z,10.90
2018-11-20T14:59:54.466Z,10.83
2018-11-20T15:03:03.331Z,11.77
2018-11-20T15:06:12.397Z,11.30
2018-11-20T15:09:21.420Z,11.23
2018-11-20T15:12:30.178Z,11.17
2018-11-20T15:15:41.046Z,11.30
2018-11-20T15:18:59.084Z,11.67
2018-11-20T15:22:08.334Z,11.00
2018-11-20T15:25:17.095Z,11.50
2018-11-20T15:28:16.869Z,11.40
2018-11-20T15:31:26.098Z,12.23
2018-11-20T15:34:35.095Z,12.13
2018-11-20T15:37:33.719Z,11.93
2018-11-20T15:40:29.446Z,12.27
2018-11-20T15:43:41.226Z,12.90
2018-11-20T15:46:50.210Z,12.73
2018-11-20T15:49:52.146Z,12.77
2018-11-20T15:53:01.969Z,12.97
2018-11-20T15:56:10.870Z,12.37
2018-11-20T15:59:40.289Z,13.10
2018-11-20T16:02:49.326Z,13.03
2018-11-20T16:05:59.003Z,13.33
2018-11-20T16:08:56.452Z,13.53
2018-11-20T16:12:05.265Z,13.50
2018-11-20T16:15:14.198Z,13.20
2018-11-20T16:18:11.276Z,13.83
2018-11-20T16:21:21.398Z,13.67
2018-11-20T16:24:30.624Z,14.57
2018-11-20T16:27:39.849Z,14.53
2018-11-20T16:30:50.056Z,15.00
2018-11-20T16:33:57.557Z,14.13
2018-11-20T16:37:07.550Z,13.73
2018-11-20T16:40:16.616Z,14.37
2018-11-20T16:43:25.638Z,14.27
2018-11-20T16:46:34.336Z,18.33
2018-11-20T16:49:43.572Z,14.43
2018-11-20T16:52:52.869Z,14.50
2018-11-20T16:56:45.673Z,15.07
2018-11-20T16:59:54.709Z,15.40
2018-11-20T17:03:02.672Z,15.27
2018-11-20T17:06:11.364Z,15.07
2018-11-20T17:09:19.605Z,15.27
2018-11-20T17:12:27.804Z,15.23
2018-11-20T17:15:36.182Z,15.53
2018-11-20T17:18:44.792Z,15.43
2018-11-20T17:21:52.742Z,16.03
2018-11-20T17:25:01.048Z,15.97
2018-11-20T17:28:09.114Z,15.67
2018-11-20T17:31:18.005Z,14.67
2018-11-20T17:34:26.770Z,15.27
2018-11-20T17:37:35.409Z,16.10
2018-11-20T17:40:43.582Z,15.93
2018-11-20T17:43:42.314Z,15.73
2018-11-20T17:46:50.958Z,15.60
2018-11-20T17:49:58.993Z,15.70
2018-11-20T17:52:58.020Z,15.87
2018-11-20T17:56:22.418Z,18.73
2018-11-20T17:59:14.642Z,16.03
2018-11-20T18:02:22.852Z,16.40
2018-11-20T18:05:30.831Z,17.17
2018-11-20T18:08:39.903Z,16.33
2018-11-20T18:12:07.322Z,16.43
2018-11-20T18:15:34.597Z,16.73
2018-11-20T18:18:42.554Z,17.20
2018-11-20T18:21:46.822Z,17.57
2018-11-20T18:24:55.122Z,18.03
2018-11-20T18:28:12.615Z,17.33
2018-11-20T18:31:21.582Z,18.87
2018-11-20T18:34:29.492Z,18.13
2018-11-20T18:37:38.103Z,20.83
2018-11-20T18:40:46.032Z,18.87
2018-11-20T18:44:13.381Z,18.87
2018-11-20T18:47:40.976Z,19.40
2018-11-20T18:50:49.224Z,20.77
2018-11-20T18:53:57.472Z,20.80
2018-11-20T18:57:05.692Z,20.47
2018-11-20T19:00:05.855Z,20.57
2018-11-20T19:03:14.025Z,20.20
2018-11-20T19:06:22.201Z,20.47
2018-11-20T19:09:49.791Z,19.80
2018-11-20T19:13:09.581Z,19.53
2018-11-20T19:16:18.017Z,20.07
2018-11-20T19:19:45.358Z,19.57
2018-11-20T19:22:53.547Z,19.13
2018-11-20T19:26:01.794Z,19.50
2018-11-20T19:29:09.744Z,19.43
2018-11-20T19:32:09.589Z,20.47
2018-11-20T19:35:17.818Z,21.23
2018-11-20T19:38:38.718Z,21.53
2018-11-20T19:41:47.356Z,21.87
2018-11-20T19:45:14.697Z,20.60
2018-11-20T19:48:22.904Z,20.47
2018-11-20T19:51:31.207Z,20.70
2018-11-20T19:54:52.972Z,19.97
2018-11-20T19:58:00.868Z,20.73
2018-11-20T20:01:09.154Z,20.80
2018-11-20T20:04:17.567Z,20.53
2018-11-20T20:07:25.631Z,20.87
2018-11-20T20:10:33.605Z,20.43
2018-11-20T20:13:41.842Z,22.77
2018-11-20T20:17:09.590Z,21.87
2018-11-20T20:20:17.752Z,20.90
2018-11-20T20:23:45.358Z,21.53
2018-11-20T20:26:53.901Z,24.90
2018-11-20T20:30:02.156Z,26.13
2018-11-20T20:33:10.534Z,23.87
2018-11-20T20:36:18.757Z,22.53
2018-11-20T20:39:28.616Z,21.57
2018-11-20T20:42:36.555Z,21.27
2018-11-20T20:46:03.914Z,20.90
2018-11-20T20:49:11.897Z,20.67
2018-11-20T20:52:19.778Z,21.00
2018-11-20T20:55:24.138Z,19.80
2018-11-20T20:58:32.428Z,20.37
2018-11-20T21:04:40.258Z,19.73
2018-11-20T21:07:48.516Z,19.47
2018-11-20T21:11:16.182Z,19.27
2018-11-20T21:14:24.600Z,20.33
2018-11-20T21:17:33.642Z,20.53
2018-11-20T21:20:41.589Z,20.77
2018-11-20T21:23:49.989Z,20.13
2018-11-20T21:27:17.456Z,20.87
2018-11-20T21:30:26.932Z,20.80
2018-11-20T21:33:35.203Z,20.23
2018-11-20T21:36:43.179Z,20.63
2018-11-20T21:39:51.394Z,21.90
2018-11-20T21:43:00.055Z,21.87
2018-11-20T21:46:07.974Z,21.93
2018-11-20T21:49:16.296Z,21.20
2018-11-20T21:52:24.556Z,20.10
2018-11-20T21:55:22.120Z,20.03
2018-11-20T21:58:29.439Z,22.20
2018-11-20T22:01:37.388Z,21.97
2018-11-20T22:04:45.749Z,21.17
2018-11-20T22:07:44.226Z,23.40
2018-11-20T22:10:52.764Z,21.00
2018-11-20T22:14:01.011Z,22.77
2018-11-20T22:17:09.144Z,22.13
2018-11-20T22:20:17.337Z,21.50
2018-11-20T22:23:25.813Z,21.43
2018-11-20T22:26:33.826Z,22.93
2018-11-20T22:29:42.024Z,24.50
2018-11-20T22:32:50.054Z,26.90
2018-11-20T22:35:58.256Z,25.30
2018-11-20T22:39:06.205Z,24.17
2018-11-20T22:42:11.011Z,24.40
2018-11-20T22:45:15.014Z,22.80
2018-11-20T22:48:23.075Z,22.33
2018-11-20T22:51:31.375Z,23.77
2018-11-20T22:54:40.521Z,23.30
2018-11-20T22:57:49.414Z,21.80
2018-11-20T23:01:16.827Z,23.03
2018-11-20T23:04:24.974Z,24.83
2018-11-20T23:07:33.156Z,23.17
2018-11-20T23:10:23.474Z,23.73
2018-11-20T23:13:13.118Z,23.03
2018-11-20T23:16:03.258Z,25.87
2018-11-20T23:18:52.393Z,28.93
2018-11-20T23:21:41.441Z,31.00
2018-11-20T23:24:30.522Z,32.20
2018-11-20T23:27:20.002Z,32.17
2018-11-20T23:30:11.098Z,33.30
2018-11-20T23:33:00.839Z,33.30
2018-11-20T23:35:49.749Z,33.87
2018-11-20T23:38:38.945Z,33.80
2018-11-20T23:41:47.468Z,45.60
2018-11-20T23:44:36.567Z,47.73
2018-11-20T23:47:26.029Z,42.13
2018-11-20T23:50:15.142Z,39.67
2018-11-20T23:53:03.996Z,41.07
2018-11-20T23:56:12.515Z,60.00
2018-11-20T23:59:01.348Z,60.27
